createdAt,value
2022-08-17T00:03:18.486Z,59.73
2022-08-17T00:08:23.365Z,60.10
2022-08-17T00:13:28.482Z,59.79
2022-08-17T00:19:01.476Z,59.80
2022-08-17T00:23:54.855Z,60.39
2022-08-17T00:28:56.789Z,60.65
2022-08-17T00:33:59.270Z,60.34
2022-08-17T00:39:00.870Z,60.93
2022-08-17T00:44:04.725Z,60.96
2022-08-17T00:49:07.641Z,60.66
2022-08-17T00:54:13.965Z,61.02
2022-08-17T00:59:19.021Z,61.56
2022-08-17T01:04:22.315Z,61.66
2022-08-17T01:09:27.744Z,61.18
2022-08-17T01:14:29.497Z,60.83
2022-08-17T01:19:34.351Z,61.74
2022-08-17T01:24:38.623Z,60.92
2022-08-17T01:29:44.788Z,61.77
2022-08-17T01:34:50.254Z,62.45
2022-08-17T01:40:32.849Z,63.71
2022-08-17T01:45:40.994Z,64.05
2022-08-17T01:50:44.597Z,63.53
2022-08-17T01:55:55.672Z,63.09
2022-08-17T02:01:00.601Z,63.95
2022-08-17T02:06:05.240Z,64.91
2022-08-17T02:11:13.702Z,64.72
2022-08-17T02:16:16.158Z,65.07
2022-08-17T02:21:17.758Z,65.04
2022-08-17T02:26:24.007Z,65.94
2022-08-17T02:31:27.475Z,65.70
2022-08-17T02:36:29.233Z,65.57
2022-08-17T02:41:30.937Z,66.09
2022-08-17T02:46:32.644Z,64.84
2022-08-17T02:51:35.134Z,65.27
2022-08-17T02:56:36.655Z,65.13
2022-08-17T03:01:38.328Z,65.96
2022-08-17T03:06:39.915Z,66.49
2022-08-17T03:11:41.419Z,66.37
2022-08-17T03:16:43.097Z,67.15
2022-08-17T03:21:45.510Z,66.19
2022-08-17T03:26:47.063Z,65.91
2022-08-17T03:31:49.770Z,65.64
2022-08-17T03:36:51.328Z,65.38
2022-08-17T03:41:52.806Z,65.51
2022-08-17T03:47:12.779Z,65.13
2022-08-17T03:52:32.975Z,64.72
2022-08-17T03:57:34.519Z,64.60
2022-08-17T04:02:36.110Z,64.74
2022-08-17T04:07:37.790Z,64.71
2022-08-17T04:12:51.380Z,64.86
2022-08-17T04:17:53.570Z,65.76
2022-08-17T04:22:56.383Z,63.87
2022-08-17T04:27:59.846Z,65.29
2022-08-17T04:33:07.103Z,64.52
2022-08-17T04:38:12.035Z,65.14
2022-08-17T04:43:21.225Z,64.88
2022-08-17T04:48:23.878Z,64.12
2022-08-17T04:53:36.368Z,64.54
2022-08-17T04:58:38.304Z,63.84
2022-08-17T05:03:39.938Z,63.39
2022-08-17T05:08:41.705Z,63.25
2022-08-17T05:13:43.474Z,63.34
2022-08-17T05:18:45.748Z,64.21
2022-08-17T05:23:54.676Z,65.55
2022-08-17T05:29:02.866Z,64.95
2022-08-17T05:34:04.617Z,64.62
2022-08-17T05:39:06.791Z,65.15
2022-08-17T05:44:08.248Z,66.16
2022-08-17T05:49:18.869Z,65.42
2022-08-17T05:54:53.863Z,63.84
2022-08-17T06:00:15.224Z,63.02
2022-08-17T06:05:39.521Z,62.58
2022-08-17T06:10:51.499Z,61.96
2022-08-17T06:16:33.291Z,61.42
2022-08-17T06:21:35.666Z,62.09
2022-08-17T06:26:43.254Z,62.76
2022-08-17T06:31:45.172Z,63.54
2022-08-17T06:37:04.149Z,64.17
2022-08-17T06:43:05.074Z,64.06
2022-08-17T06:48:09.409Z,64.57
2022-08-17T06:53:35.391Z,64.85
2022-08-17T06:58:40.285Z,65.85
2022-08-17T07:04:04.983Z,65.17
2022-08-17T07:09:15.772Z,64.99
2022-08-17T07:14:17.615Z,64.76
2022-08-17T07:19:22.468Z,65.16
2022-08-17T07:24:45.153Z,65.17
2022-08-17T07:30:10.282Z,64.63
2022-08-17T07:35:31.072Z,64.71
2022-08-17T07:40:48.010Z,64.73
2022-08-17T07:46:17.994Z,64.38
2022-08-17T07:51:25.228Z,64.07
2022-08-17T07:56:44.823Z,65.32
2022-08-17T08:02:06.156Z,65.28
2022-08-17T08:07:26.301Z,65.79
2022-08-17T08:12:48.006Z,65.41
2022-08-17T08:18:02.786Z,65.51
2022-08-17T08:23:19.956Z,65.41
2022-08-17T08:28:24.875Z,65.15
2022-08-17T08:33:39.813Z,65.36
2022-08-17T08:38:53.702Z,64.95
2022-08-17T08:44:21.983Z,64.61
2022-08-17T08:50:03.854Z,64.68
2022-08-17T08:55:16.852Z,65.20
2022-08-17T09:00:25.250Z,65.76
2022-08-17T09:05:55.907Z,65.51
2022-08-17T09:11:06.075Z,65.97
2022-08-17T09:16:16.195Z,69.35
2022-08-17T09:21:33.726Z,71.14
2022-08-17T09:26:39.366Z,70.56
2022-08-17T09:32:03.949Z,69.68
2022-08-17T09:37:35.447Z,68.54
2022-08-17T09:42:47.358Z,68.30
2022-08-17T09:47:59.736Z,67.96
2022-08-17T09:53:01.963Z,69.70
2022-08-17T09:58:29.273Z,72.51
2022-08-17T10:04:07.243Z,71.97
2022-08-17T10:09:20.051Z,71.76
2022-08-17T10:14:44.197Z,72.44
2022-08-17T10:20:00.891Z,73.11
2022-08-17T10:25:26.116Z,75.29
2022-08-17T10:30:35.946Z,78.86
2022-08-17T10:35:50.899Z,80.89
2022-08-17T10:40:53.107Z,83.20
2022-08-17T10:46:27.632Z,84.58
2022-08-17T10:51:38.290Z,85.40
2022-08-17T10:56:50.333Z,86.60
2022-08-17T11:02:06.503Z,90.62
2022-08-17T11:07:49.386Z,92.35
2022-08-17T11:13:01.199Z,92.59
2022-08-17T11:18:21.596Z,93.40
2022-08-17T11:23:53.696Z,90.66
2022-08-17T11:29:03.666Z,89.59
2022-08-17T11:34:23.048Z,91.47
2022-08-17T11:39:37.174Z,90.91
2022-08-17T11:44:52.376Z,91.51
2022-08-17T11:50:19.355Z,91.33
2022-08-17T11:55:37.491Z,90.97
2022-08-17T12:00:47.316Z,92.43
2022-08-17T12:05:50.228Z,91.70
2022-08-17T12:10:58.550Z,92.59
2022-08-17T12:16:00.819Z,92.71
2022-08-17T12:21:17.658Z,91.55
2022-08-17T12:26:24.935Z,91.60
2022-08-17T12:31:30.875Z,90.25
2022-08-17T12:36:33.092Z,89.27
2022-08-17T12:41:46.744Z,88.38
2022-08-17T12:46:54.407Z,87.67
2022-08-17T12:52:14.056Z,84.42
2022-08-17T12:57:44.101Z,82.12
2022-08-17T13:03:05.992Z,79.83
2022-08-17T13:08:15.218Z,81.29
2022-08-17T13:13:20.830Z,81.23
2022-08-17T13:18:28.451Z,79.69
2022-08-17T13:23:31.353Z,78.95
2022-08-17T13:28:36.601Z,80.10
2022-08-17T13:33:43.702Z,78.55
2022-08-17T13:38:49.657Z,78.44
2022-08-17T13:43:51.412Z,78.40
2022-08-17T13:49:11.980Z,78.78
2022-08-17T13:54:25.726Z,78.12
2022-08-17T13:59:53.275Z,77.12
2022-08-17T14:04:54.163Z,76.21
2022-08-17T14:10:00.417Z,77.52
2022-08-17T14:15:03.270Z,75.59
2022-08-17T14:20:07.782Z,76.03
2022-08-17T14:25:12.143Z,76.90
2022-08-17T14:30:14.630Z,75.79
2022-08-17T14:35:16.232Z,76.66
2022-08-17T14:40:20.822Z,74.92
2022-08-17T14:45:30.293Z,75.66
2022-08-17T14:50:37.401Z,74.36
2022-08-17T14:55:42.211Z,73.80
2022-08-17T15:00:43.911Z,71.58
2022-08-17T15:05:46.710Z,68.50
2022-08-17T15:10:50.693Z,68.28
2022-08-17T15:15:52.683Z,66.40
2022-08-17T15:20:54.603Z,65.92
2022-08-17T15:25:56.135Z,66.24
2022-08-17T15:30:57.630Z,66.92
2022-08-17T15:36:03.864Z,68.67
2022-08-17T15:41:08.563Z,68.89
2022-08-17T15:46:15.079Z,68.79
2022-08-17T15:51:16.499Z,67.76
2022-08-17T15:56:18.170Z,66.14
2022-08-17T16:02:21.606Z,65.71
2022-08-17T16:06:43.552Z,68.09
2022-08-17T16:11:45.991Z,68.21
2022-08-17T16:16:55.196Z,68.05
2022-08-17T16:21:56.658Z,67.73
2022-08-17T16:26:58.679Z,67.09
2022-08-17T16:32:13.420Z,65.84
2022-08-17T16:37:15.183Z,63.02
2022-08-17T16:42:30.669Z,61.68
2022-08-17T16:47:32.175Z,62.92
2022-08-17T16:52:34.142Z,63.71
2022-08-17T16:57:37.483Z,64.15
2022-08-17T17:02:49.564Z,62.65
2022-08-17T17:08:08.871Z,62.25
2022-08-17T17:13:19.919Z,62.90
2022-08-17T17:18:31.554Z,63.97
2022-08-17T17:23:42.615Z,62.01
2022-08-17T17:29:08.895Z,62.44
2022-08-17T17:34:15.783Z,62.38
2022-08-17T17:39:44.671Z,62.94
2022-08-17T17:45:09.639Z,63.53
2022-08-17T17:50:11.383Z,64.59
2022-08-17T17:55:25.995Z,66.20
2022-08-17T18:00:34.443Z,66.40
2022-08-17T18:06:09.844Z,66.56
2022-08-17T18:11:36.975Z,66.24
2022-08-17T18:16:42.653Z,66.67
2022-08-17T18:21:49.191Z,67.66
2022-08-17T18:26:56.718Z,67.85
2022-08-17T18:32:16.708Z,69.22
2022-08-17T18:37:40.717Z,69.76
2022-08-17T18:43:00.484Z,70.50
2022-08-17T18:48:02.556Z,71.33
2022-08-17T18:53:26.801Z,71.68
2022-08-17T18:58:31.922Z,74.49
2022-08-17T19:03:42.878Z,75.65
2022-08-17T19:08:44.410Z,76.09
2022-08-17T19:13:56.688Z,76.58
2022-08-17T19:19:21.770Z,78.17
2022-08-17T19:24:29.966Z,78.96
2022-08-17T19:29:37.748Z,79.46
2022-08-17T19:34:42.332Z,78.63
2022-08-17T19:40:02.624Z,79.76
2022-08-17T19:45:34.649Z,79.92
2022-08-17T19:50:48.226Z,81.11
2022-08-17T19:55:50.940Z,80.91
2022-08-17T20:00:54.238Z,81.87
2022-08-17T20:06:15.091Z,81.74
2022-08-17T20:11:52.088Z,82.92
2022-08-17T20:16:53.841Z,83.26
2022-08-17T20:22:14.272Z,82.24
2022-08-17T20:27:20.270Z,83.84
2022-08-17T20:32:35.493Z,84.57
2022-08-17T20:37:43.083Z,85.55
2022-08-17T20:42:44.643Z,85.54
2022-08-17T20:53:47.560Z,86.71
2022-08-17T20:58:49.252Z,86.70
2022-08-17T21:03:52.241Z,86.95
2022-08-17T21:09:29.897Z,87.62
2022-08-17T21:14:52.103Z,87.34
2022-08-17T21:20:16.286Z,87.31
2022-08-17T21:25:32.454Z,89.07
2022-08-17T21:30:33.842Z,89.27
2022-08-17T21:36:13.232Z,90.30
2022-08-17T21:41:29.446Z,90.61
2022-08-17T21:46:37.600Z,93.60
2022-08-17T21:51:49.801Z,92.83
2022-08-17T21:56:51.987Z,94.91
2022-08-17T22:01:55.918Z,96.18
2022-08-17T22:07:00.323Z,95.40
2022-08-17T22:12:04.888Z,95.35
2022-08-17T22:17:15.287Z,96.70
2022-08-17T22:22:32.775Z,96.79
2022-08-17T22:27:54.468Z,97.75
2022-08-17T22:32:56.859Z,96.96
2022-08-17T22:38:20.202Z,97.10
2022-08-17T22:43:26.224Z,97.82
2022-08-17T22:48:30.307Z,98.05
2022-08-17T22:53:53.763Z,100.00
2022-08-17T22:59:17.032Z,100.00
2022-08-17T23:04:36.792Z,100.00
2022-08-17T23:09:38.889Z,99.97
2022-08-17T23:14:45.355Z,100.00
2022-08-17T23:19:46.888Z,98.90
2022-08-17T23:24:51.457Z,99.58
2022-08-17T23:29:54.031Z,99.98
2022-08-17T23:34:56.505Z,100.00
2022-08-17T23:39:58.074Z,99.38
2022-08-17T23:44:59.667Z,99.15
2022-08-17T23:50:05.291Z,99.91
2022-08-17T23:55:07.691Z,99.01
